createdAt,value
2022-10-21T00:00:57.755Z,15.50
2022-10-21T00:02:06.160Z,16.38
2022-10-21T00:03:08.146Z,17.13
2022-10-21T00:04:10.675Z,15.93
2022-10-21T00:05:12.693Z,15.45
2022-10-21T00:06:15.180Z,14.57
2022-10-21T00:07:16.744Z,15.02
2022-10-21T00:08:21.925Z,16.23
2022-10-21T00:09:23.451Z,16.00
2022-10-21T00:10:26.047Z,15.45
2022-10-21T00:11:27.612Z,16.15
2022-10-21T00:12:30.688Z,14.75
2022-10-21T00:13:34.081Z,14.88
2022-10-21T00:14:37.007Z,16.30
2022-10-21T00:15:38.739Z,17.30
2022-10-21T00:16:41.228Z,16.27
2022-10-21T00:17:43.279Z,16.17
2022-10-21T00:18:47.506Z,15.73
2022-10-21T00:19:49.415Z,16.40
2022-10-21T00:20:52.042Z,14.90
2022-10-21T00:21:53.594Z,14.55
2022-10-21T00:22:56.127Z,16.15
2022-10-21T00:23:59.072Z,13.30
2022-10-21T00:25:01.901Z,14.70
2022-10-21T00:26:03.549Z,13.98
2022-10-21T00:27:06.093Z,14.20
2022-10-21T00:28:07.670Z,13.90
2022-10-21T00:29:10.476Z,13.55
2022-10-21T00:30:13.488Z,13.45
2022-10-21T00:31:17.203Z,13.55
2022-10-21T00:32:18.831Z,13.32
2022-10-21T00:33:22.108Z,13.55
2022-10-21T00:34:27.040Z,13.98
2022-10-21T00:35:34.603Z,12.98
2022-10-21T00:36:36.156Z,13.13
2022-10-21T00:37:38.978Z,12.50
2022-10-21T00:38:41.679Z,13.77
2022-10-21T00:39:45.543Z,12.48
2022-10-21T00:40:47.168Z,13.73
2022-10-21T00:41:49.696Z,13.10
2022-10-21T00:42:51.212Z,12.70
2022-10-21T00:43:58.822Z,12.95
2022-10-21T00:45:17.229Z,12.95
2022-10-21T00:46:19.760Z,13.38
2022-10-21T00:47:22.364Z,13.38
2022-10-21T00:48:33.703Z,14.55
2022-10-21T00:49:39.615Z,13.95
2022-10-21T00:50:49.160Z,12.80
2022-10-21T00:51:54.893Z,13.57
2022-10-21T00:52:59.655Z,13.80
2022-10-21T00:54:02.670Z,13.15
2022-10-21T00:55:08.014Z,13.25
2022-10-21T00:56:16.621Z,12.93
2022-10-21T00:57:21.101Z,13.05
2022-10-21T00:58:26.386Z,13.15
2022-10-21T00:59:32.428Z,11.93
2022-10-21T01:00:33.924Z,14.00
2022-10-21T01:01:36.605Z,12.30
2022-10-21T01:02:38.256Z,13.45
2022-10-21T01:03:40.929Z,12.50
2022-10-21T01:04:43.144Z,13.20
2022-10-21T01:05:46.414Z,12.43
2022-10-21T01:06:48.839Z,15.15
2022-10-21T01:07:52.513Z,14.35
2022-10-21T01:08:56.568Z,13.20
2022-10-21T01:09:59.495Z,13.57
2022-10-21T01:11:03.552Z,13.10
2022-10-21T01:12:16.114Z,14.05
2022-10-21T01:13:28.376Z,14.10
2022-10-21T01:14:50.963Z,12.80
2022-10-21T01:15:59.759Z,11.40
2022-10-21T01:17:26.446Z,14.40
2022-10-21T01:18:44.156Z,12.40
2022-10-21T01:20:18.850Z,12.90
2022-10-21T01:21:31.608Z,13.27
2022-10-21T01:22:52.701Z,13.88
2022-10-21T01:24:37.162Z,13.88
2022-10-21T01:26:05.414Z,13.20
2022-10-21T01:27:27.078Z,13.00
2022-10-21T01:28:40.084Z,12.23
2022-10-21T01:30:12.682Z,12.55
2022-10-21T01:31:21.434Z,13.80
2022-10-21T01:32:33.455Z,12.60
2022-10-21T01:33:41.124Z,12.35
2022-10-21T01:34:51.050Z,13.15
2022-10-21T01:35:57.890Z,12.27
2022-10-21T01:37:11.117Z,12.82
2022-10-21T01:38:19.917Z,14.23
2022-10-21T01:39:29.095Z,13.60
2022-10-21T01:40:37.328Z,12.65
2022-10-21T01:41:43.278Z,13.75
2022-10-21T01:42:52.524Z,12.48
2022-10-21T01:44:03.186Z,13.95
2022-10-21T01:45:12.613Z,13.32
2022-10-21T01:46:23.672Z,13.13
2022-10-21T01:47:31.293Z,13.50
2022-10-21T01:48:38.492Z,12.90
2022-10-21T01:49:47.954Z,13.55
2022-10-21T01:50:53.550Z,13.25
2022-10-21T01:51:56.649Z,12.15
2022-10-21T01:53:02.662Z,12.20
2022-10-21T01:54:08.802Z,12.38
2022-10-21T01:55:15.547Z,12.60
2022-10-21T01:56:18.894Z,13.32
2022-10-21T01:57:24.398Z,13.40
2022-10-21T01:58:31.067Z,12.38
2022-10-21T01:59:33.891Z,13.60
2022-10-21T02:00:38.081Z,12.05
2022-10-21T02:01:44.030Z,12.85
2022-10-21T02:02:49.483Z,12.80
2022-10-21T02:04:01.229Z,13.90
2022-10-21T02:05:11.727Z,12.27
2022-10-21T02:06:14.032Z,12.45
2022-10-21T02:07:16.519Z,11.75
2022-10-21T02:08:18.193Z,12.15
2022-10-21T02:09:20.795Z,11.13
2022-10-21T02:10:25.350Z,12.93
2022-10-21T02:11:29.436Z,10.95
2022-10-21T02:12:33.728Z,11.40
2022-10-21T02:13:42.720Z,11.77
2022-10-21T02:14:48.657Z,11.82
2022-10-21T02:15:53.651Z,11.63
2022-10-21T02:16:59.371Z,12.02
2022-10-21T02:18:05.567Z,10.60
2022-10-21T02:19:15.194Z,10.88
2022-10-21T02:20:18.021Z,10.10
2022-10-21T02:21:24.219Z,10.70
2022-10-21T02:22:28.332Z,9.68
2022-10-21T02:23:39.100Z,10.05
2022-10-21T02:24:46.199Z,9.50
2022-10-21T02:25:51.704Z,10.05
2022-10-21T02:26:53.598Z,9.90
2022-10-21T02:27:56.594Z,10.60
2022-10-21T02:28:59.279Z,9.35
2022-10-21T02:30:02.504Z,10.07
2022-10-21T02:31:17.999Z,10.02
2022-10-21T02:32:29.867Z,9.27
2022-10-21T02:33:43.797Z,9.18
2022-10-21T02:35:01.413Z,9.18
2022-10-21T02:36:12.601Z,8.52
2022-10-21T02:37:22.575Z,10.10
2022-10-21T02:38:28.410Z,9.30
2022-10-21T02:39:36.661Z,8.52
2022-10-21T02:40:42.955Z,9.07
2022-10-21T02:41:46.943Z,8.45
2022-10-21T02:42:52.418Z,8.45
2022-10-21T02:43:59.010Z,8.27
2022-10-21T02:45:02.092Z,8.75
2022-10-21T02:46:08.922Z,8.45
2022-10-21T02:48:20.052Z,8.15
2022-10-21T02:49:22.818Z,8.75
2022-10-21T02:50:25.316Z,7.93
2022-10-21T02:51:26.845Z,8.30
2022-10-21T02:52:29.334Z,8.20
2022-10-21T02:53:31.036Z,9.25
2022-10-21T02:54:33.571Z,8.60
2022-10-21T02:55:35.160Z,7.50
2022-10-21T02:56:37.604Z,7.72
2022-10-21T02:57:39.427Z,7.35
2022-10-21T02:58:42.138Z,7.75
2022-10-21T02:59:43.703Z,7.05
2022-10-21T03:00:46.283Z,7.72
2022-10-21T03:01:47.871Z,7.70
2022-10-21T03:02:50.338Z,7.68
2022-10-21T03:03:53.227Z,8.25
2022-10-21T03:04:55.939Z,7.47
2022-10-21T03:05:58.890Z,7.82
2022-10-21T03:07:01.535Z,7.70
2022-10-21T03:08:03.293Z,8.93
2022-10-21T03:09:06.264Z,7.53
2022-10-21T03:10:08.895Z,7.57
2022-10-21T03:11:11.492Z,6.95
2022-10-21T03:12:13.058Z,7.25
2022-10-21T03:13:15.718Z,8.38
2022-10-21T03:14:18.572Z,7.57
2022-10-21T03:15:20.297Z,7.18
2022-10-21T03:16:22.832Z,6.85
2022-10-21T03:17:25.433Z,8.43
2022-10-21T03:18:28.199Z,7.47
2022-10-21T03:19:31.205Z,7.10
2022-10-21T03:20:33.820Z,7.80
2022-10-21T03:21:35.492Z,6.78
2022-10-21T03:22:38.020Z,7.43
2022-10-21T03:23:39.848Z,7.35
2022-10-21T03:24:42.366Z,8.20
2022-10-21T03:25:43.949Z,7.07
2022-10-21T03:26:46.534Z,7.60
2022-10-21T03:27:49.717Z,7.50
2022-10-21T03:28:52.350Z,6.90
2022-10-21T03:29:53.904Z,7.00
2022-10-21T03:30:56.479Z,7.40
2022-10-21T03:31:58.048Z,7.22
2022-10-21T03:33:00.530Z,7.28
2022-10-21T03:34:02.108Z,6.95
2022-10-21T03:35:07.148Z,7.15
2022-10-21T03:36:09.956Z,7.20
2022-10-21T03:37:11.994Z,6.90
2022-10-21T03:38:14.882Z,7.30
2022-10-21T03:39:16.655Z,7.20
2022-10-21T03:40:19.640Z,9.23
2022-10-21T03:41:21.176Z,7.60
2022-10-21T03:42:23.681Z,6.80
2022-10-21T03:43:25.322Z,9.57
2022-10-21T03:44:27.782Z,7.72
2022-10-21T03:45:29.310Z,6.93
2022-10-21T03:46:31.948Z,6.90
2022-10-21T03:47:33.469Z,6.95
2022-10-21T03:48:35.952Z,7.00
2022-10-21T03:49:37.488Z,7.05
2022-10-21T03:50:41.314Z,7.57
2022-10-21T03:51:42.829Z,7.05
2022-10-21T03:52:45.406Z,6.65
2022-10-21T03:53:46.930Z,7.07
2022-10-21T03:54:49.406Z,6.28
2022-10-21T03:55:56.334Z,7.05
2022-10-21T03:56:59.573Z,6.75
2022-10-21T03:58:01.115Z,7.25
2022-10-21T03:59:03.847Z,7.60
2022-10-21T04:00:06.628Z,7.00
2022-10-21T04:01:13.663Z,6.97
2022-10-21T04:02:15.243Z,7.97
2022-10-21T04:03:17.751Z,6.82
2022-10-21T04:04:20.344Z,7.70
2022-10-21T04:05:21.872Z,7.10
2022-10-21T04:06:25.806Z,6.82
2022-10-21T04:07:27.533Z,7.68
2022-10-21T04:08:30.071Z,7.55
2022-10-21T04:09:31.610Z,6.22
2022-10-21T04:10:34.070Z,7.32
2022-10-21T04:11:35.591Z,7.40
2022-10-21T04:12:38.426Z,7.15
2022-10-21T04:13:40.164Z,6.60
2022-10-21T04:14:42.646Z,6.38
2022-10-21T04:15:45.511Z,6.13
2022-10-21T04:16:50.511Z,6.53
2022-10-21T04:18:02.381Z,7.22
2022-10-21T04:19:04.895Z,7.15
2022-10-21T04:20:07.798Z,6.10
2022-10-21T04:21:10.544Z,7.72
2022-10-21T04:22:13.411Z,6.05
2022-10-21T04:23:15.914Z,7.05
2022-10-21T04:24:17.459Z,6.13
2022-10-21T04:25:20.101Z,6.53
2022-10-21T04:26:21.668Z,6.50
2022-10-21T04:27:24.176Z,6.50
2022-10-21T04:28:25.781Z,6.60
2022-10-21T04:29:28.263Z,8.23
2022-10-21T04:30:29.823Z,5.85
2022-10-21T04:31:32.456Z,6.80
2022-10-21T04:32:43.840Z,6.40
2022-10-21T04:33:46.421Z,6.45
2022-10-21T04:34:47.949Z,6.60
2022-10-21T04:35:50.416Z,6.60
2022-10-21T04:36:52.068Z,5.93
2022-10-21T04:37:55.967Z,7.00
2022-10-21T04:38:57.507Z,6.32
2022-10-21T04:39:59.986Z,5.60
2022-10-21T04:41:03.452Z,6.55
2022-10-21T04:42:06.011Z,6.80
2022-10-21T04:43:07.522Z,6.55
2022-10-21T04:44:10.301Z,5.70
2022-10-21T04:45:11.815Z,5.40
2022-10-21T04:46:16.869Z,5.25
2022-10-21T04:47:18.633Z,5.53
2022-10-21T04:48:21.236Z,5.78
2022-10-21T04:49:22.884Z,7.03
2022-10-21T04:50:25.957Z,7.15
2022-10-21T04:51:27.771Z,6.20
2022-10-21T04:52:30.658Z,6.15
2022-10-21T04:53:33.555Z,5.20
2022-10-21T04:54:36.071Z,5.85
2022-10-21T04:55:39.113Z,4.50
2022-10-21T04:56:41.659Z,4.70
2022-10-21T04:57:43.182Z,5.50
2022-10-21T04:58:45.767Z,5.50
2022-10-21T04:59:47.545Z,4.90
2022-10-21T05:00:50.873Z,4.78
2022-10-21T05:01:53.579Z,5.22
2022-10-21T05:02:55.169Z,5.15
2022-10-21T05:03:57.788Z,5.90
2022-10-21T05:04:59.314Z,4.80
2022-10-21T05:06:01.873Z,4.95
2022-10-21T05:07:03.595Z,5.13
2022-10-21T05:08:11.442Z,5.95
2022-10-21T05:09:15.064Z,5.85
2022-10-21T05:10:17.802Z,6.55
2022-10-21T05:11:19.356Z,5.35
2022-10-21T05:12:22.301Z,5.20
2022-10-21T05:13:23.852Z,5.13
2022-10-21T05:14:26.359Z,6.20
2022-10-21T05:15:27.955Z,5.40
2022-10-21T05:16:30.436Z,6.30
2022-10-21T05:17:31.952Z,5.00
2022-10-21T05:18:34.510Z,5.57
2022-10-21T05:19:35.987Z,5.07
2022-10-21T05:20:41.139Z,5.15
2022-10-21T05:21:42.808Z,5.78
2022-10-21T05:22:45.316Z,5.75
2022-10-21T05:23:46.991Z,6.28
2022-10-21T05:24:50.776Z,5.00
2022-10-21T05:25:52.397Z,5.20
2022-10-21T05:26:54.921Z,5.28
2022-10-21T05:27:56.420Z,5.18
2022-10-21T05:28:59.492Z,5.35
2022-10-21T05:30:01.052Z,4.82
2022-10-21T05:31:03.627Z,5.95
2022-10-21T05:32:05.665Z,5.55
2022-10-21T05:33:08.124Z,5.10
2022-10-21T05:34:10.589Z,5.47
2022-10-21T05:35:12.320Z,5.40
2022-10-21T05:36:14.803Z,4.63
2022-10-21T05:37:16.418Z,5.70
2022-10-21T05:38:19.036Z,5.13
2022-10-21T05:39:21.579Z,5.00
2022-10-21T05:40:24.591Z,5.13
2022-10-21T05:41:27.211Z,5.47
2022-10-21T05:42:28.758Z,4.20
2022-10-21T05:43:31.639Z,4.68
2022-10-21T05:44:33.319Z,4.50
2022-10-21T05:45:35.911Z,4.63
2022-10-21T05:46:38.607Z,4.65
2022-10-21T05:47:40.970Z,5.22
2022-10-21T05:48:43.536Z,4.60
2022-10-21T05:49:45.123Z,4.47
2022-10-21T05:50:48.351Z,4.20
2022-10-21T05:51:49.896Z,5.15
2022-10-21T05:52:53.891Z,4.35
2022-10-21T05:53:58.667Z,4.95
2022-10-21T05:55:00.249Z,5.95
2022-10-21T05:56:05.984Z,4.70
2022-10-21T05:57:07.649Z,4.95
2022-10-21T05:58:10.257Z,4.90
2022-10-21T05:59:12.778Z,5.03
2022-10-21T06:00:14.581Z,5.50
2022-10-21T06:01:18.609Z,5.35
2022-10-21T06:02:20.301Z,5.90
2022-10-21T06:03:23.642Z,4.95
2022-10-21T06:04:26.603Z,5.30
2022-10-21T06:05:31.640Z,5.35
2022-10-21T06:06:34.568Z,5.40
2022-10-21T06:07:36.963Z,6.35
2022-10-21T06:08:40.431Z,5.57
2022-10-21T06:09:42.118Z,5.22
2022-10-21T06:10:45.177Z,4.88
2022-10-21T06:11:49.487Z,5.50
2022-10-21T06:12:52.202Z,4.90
2022-10-21T06:13:53.838Z,4.95
2022-10-21T06:14:56.599Z,4.97
2022-10-21T06:15:58.969Z,4.38
2022-10-21T06:17:01.795Z,4.97
2022-10-21T06:18:04.579Z,5.40
2022-10-21T06:19:06.163Z,4.88
2022-10-21T06:20:09.429Z,5.05
2022-10-21T06:21:11.841Z,4.65
2022-10-21T06:22:15.865Z,4.60
2022-10-21T06:23:17.654Z,4.30
2022-10-21T06:24:20.107Z,4.85
2022-10-21T06:25:21.807Z,4.55
2022-10-21T06:26:24.355Z,4.75
2022-10-21T06:27:27.238Z,5.03
2022-10-21T06:28:31.694Z,4.93
2022-10-21T06:29:33.304Z,5.10
2022-10-21T06:30:36.476Z,4.70
2022-10-21T06:31:38.037Z,5.10
2022-10-21T06:32:40.528Z,4.10
2022-10-21T06:33:42.335Z,4.35
2022-10-21T06:34:44.863Z,6.10
2022-10-21T06:35:46.995Z,5.80
2022-10-21T06:36:49.691Z,5.30
2022-10-21T06:37:52.220Z,4.70
2022-10-21T06:38:53.978Z,4.45
2022-10-21T06:39:56.832Z,4.28
2022-10-21T06:41:02.089Z,4.72
2022-10-21T06:42:04.701Z,5.18
2022-10-21T06:43:07.611Z,4.50
2022-10-21T06:44:10.063Z,4.60
2022-10-21T06:45:12.703Z,4.57
2022-10-21T06:46:15.436Z,5.18
2022-10-21T06:47:18.113Z,4.75
2022-10-21T06:48:20.646Z,4.25
2022-10-21T06:49:22.192Z,4.53
2022-10-21T06:50:24.796Z,4.13
2022-10-21T06:51:29.187Z,4.22
2022-10-21T06:52:31.127Z,4.63
2022-10-21T06:53:36.559Z,4.97
2022-10-21T06:54:40.640Z,4.25
2022-10-21T06:55:43.214Z,4.50
2022-10-21T06:56:45.950Z,4.00
2022-10-21T06:57:48.521Z,3.90
2022-10-21T06:58:52.804Z,4.65
2022-10-21T06:59:54.333Z,4.80
2022-10-21T07:00:56.840Z,4.40
2022-10-21T07:02:00.909Z,5.03
2022-10-21T07:03:03.740Z,4.70
2022-10-21T07:04:06.997Z,5.15
2022-10-21T07:05:10.355Z,4.63
2022-10-21T07:06:12.305Z,4.53
2022-10-21T07:07:15.353Z,4.22
2022-10-21T07:08:19.820Z,4.68
2022-10-21T07:09:25.302Z,4.15
2022-10-21T07:10:26.867Z,4.93
2022-10-21T07:11:29.797Z,3.40
2022-10-21T07:12:32.522Z,3.75
2022-10-21T07:13:35.376Z,4.03
2022-10-21T07:14:39.227Z,4.13
2022-10-21T07:15:40.756Z,4.30
2022-10-21T07:16:43.510Z,4.07
2022-10-21T07:17:46.570Z,4.10
2022-10-21T07:18:49.137Z,4.43
2022-10-21T07:19:50.687Z,4.20
2022-10-21T07:20:53.203Z,4.25
2022-10-21T07:21:55.865Z,4.25
2022-10-21T07:22:58.495Z,5.00
2022-10-21T07:24:00.716Z,3.90
2022-10-21T07:25:04.873Z,4.00
2022-10-21T07:26:07.527Z,4.68
2022-10-21T07:27:10.021Z,3.60
2022-10-21T07:28:11.640Z,4.65
2022-10-21T07:29:14.257Z,4.60
2022-10-21T07:30:17.615Z,4.63
2022-10-21T07:31:21.849Z,4.05
2022-10-21T07:32:23.412Z,4.20
2022-10-21T07:33:26.045Z,4.55
2022-10-21T07:34:28.692Z,4.93
2022-10-21T07:35:30.253Z,5.45
2022-10-21T07:36:35.154Z,5.65
2022-10-21T07:37:37.063Z,5.95
2022-10-21T07:38:41.164Z,5.45
2022-10-21T07:39:42.734Z,6.82
2022-10-21T07:40:45.663Z,5.45
2022-10-21T07:41:49.273Z,8.57
2022-10-21T07:42:51.779Z,5.65
2022-10-21T07:43:55.066Z,6.70
2022-10-21T07:44:59.362Z,6.00
2022-10-21T07:46:06.101Z,5.88
2022-10-21T07:47:09.617Z,6.22
2022-10-21T07:48:11.152Z,5.55
2022-10-21T07:49:15.034Z,4.40
2022-10-21T07:50:17.942Z,4.70
2022-10-21T07:51:26.884Z,4.63
2022-10-21T07:52:33.705Z,4.43
2022-10-21T07:53:38.661Z,4.32
2022-10-21T07:54:41.199Z,5.05
2022-10-21T07:55:42.731Z,4.13
2022-10-21T07:56:47.480Z,4.95
2022-10-21T07:57:49.057Z,4.40
2022-10-21T07:58:52.442Z,6.75
2022-10-21T07:59:55.029Z,4.80
2022-10-21T08:00:58.473Z,4.97
2022-10-21T08:02:02.450Z,4.10
2022-10-21T08:03:03.944Z,6.00
2022-10-21T08:04:07.404Z,5.40
2022-10-21T08:05:10.294Z,5.10
2022-10-21T08:06:13.690Z,4.35
2022-10-21T08:07:16.250Z,5.05
2022-10-21T08:08:21.596Z,4.25
2022-10-21T08:09:24.085Z,4.32
2022-10-21T08:10:25.613Z,5.20
2022-10-21T08:11:30.613Z,5.32
2022-10-21T08:12:32.169Z,4.60
2022-10-21T08:13:34.879Z,4.97
2022-10-21T08:14:37.492Z,4.45
2022-10-21T08:15:41.928Z,4.30
2022-10-21T08:16:44.413Z,4.38
2022-10-21T08:17:48.285Z,5.45
2022-10-21T08:18:50.018Z,5.03
2022-10-21T08:19:58.620Z,5.18
2022-10-21T08:21:02.661Z,5.00
2022-10-21T08:22:06.337Z,4.88
2022-10-21T08:23:08.087Z,4.80
2022-10-21T08:24:10.725Z,4.60
2022-10-21T08:25:16.576Z,4.40
2022-10-21T08:26:21.230Z,5.13
2022-10-21T08:27:23.689Z,4.97
2022-10-21T08:28:27.159Z,4.80
2022-10-21T08:29:29.662Z,4.88
2022-10-21T08:30:31.810Z,6.25
2022-10-21T08:31:35.980Z,4.85
2022-10-21T08:32:38.779Z,5.78
2022-10-21T08:33:44.059Z,7.45
2022-10-21T08:34:46.660Z,5.35
2022-10-21T08:35:48.221Z,5.15
2022-10-21T08:36:50.957Z,5.50
2022-10-21T08:37:52.555Z,5.72
2022-10-21T08:38:55.595Z,5.25
2022-10-21T08:39:57.192Z,5.10
2022-10-21T08:41:00.823Z,6.05
2022-10-21T08:42:08.073Z,5.40
2022-10-21T08:43:15.695Z,4.53
2022-10-21T08:44:42.790Z,5.05
2022-10-21T08:45:49.302Z,5.18
2022-10-21T08:46:58.377Z,4.57
2022-10-21T08:48:06.534Z,5.78
2022-10-21T08:49:16.340Z,5.20
2022-10-21T08:50:22.680Z,5.43
2022-10-21T08:51:29.568Z,5.43
2022-10-21T08:52:40.864Z,4.75
2022-10-21T08:53:48.666Z,5.60
2022-10-21T08:54:56.079Z,5.10
2022-10-21T08:56:03.261Z,5.75
2022-10-21T08:57:05.155Z,5.80
2022-10-21T08:58:16.233Z,5.22
2022-10-21T08:59:21.756Z,5.97
2022-10-21T09:00:26.884Z,5.60
2022-10-21T09:01:34.444Z,6.00
2022-10-21T09:02:47.451Z,5.18
2022-10-21T09:03:55.938Z,5.78
2022-10-21T09:05:19.742Z,6.10
2022-10-21T09:06:25.713Z,5.43
2022-10-21T09:07:36.231Z,5.75
2022-10-21T09:08:47.374Z,6.40
2022-10-21T09:09:55.677Z,5.50
2022-10-21T09:11:02.382Z,5.60
2022-10-21T09:12:09.869Z,6.28
2022-10-21T09:13:17.528Z,5.93
2022-10-21T09:14:43.419Z,5.43
2022-10-21T09:15:56.571Z,5.15
2022-10-21T09:17:06.139Z,5.93
2022-10-21T09:18:22.415Z,5.75
2022-10-21T09:19:35.571Z,5.32
2022-10-21T09:20:56.040Z,6.20
2022-10-21T09:22:34.318Z,6.00
2022-10-21T09:23:52.896Z,6.13
2022-10-21T09:25:04.848Z,6.97
2022-10-21T09:26:23.384Z,6.90
2022-10-21T09:27:54.806Z,6.50
2022-10-21T09:28:51.657Z,6.03
2022-10-21T09:29:58.766Z,5.47
2022-10-21T09:31:04.864Z,6.53
2022-10-21T09:32:15.638Z,5.90
2022-10-21T09:33:24.086Z,5.70
2022-10-21T09:34:38.968Z,6.28
2022-10-21T09:35:48.043Z,5.70
2022-10-21T09:36:52.297Z,5.70
2022-10-21T09:37:58.467Z,5.80
2022-10-21T09:39:03.182Z,5.70
2022-10-21T09:40:16.070Z,5.38
2022-10-21T09:42:42.707Z,5.15
2022-10-21T09:43:48.671Z,4.45
2022-10-21T09:44:51.543Z,5.72
2022-10-21T09:45:55.157Z,4.95
2022-10-21T09:46:56.709Z,4.80
2022-10-21T09:48:01.615Z,5.28
2022-10-21T09:50:27.634Z,5.03
2022-10-21T09:51:34.944Z,5.82
2022-10-21T09:52:37.952Z,5.32
2022-10-21T09:53:52.928Z,5.45
2022-10-21T09:54:57.696Z,5.25
2022-10-21T09:56:03.714Z,5.05
2022-10-21T09:57:16.713Z,5.38
2022-10-21T09:58:26.782Z,6.53
2022-10-21T09:59:32.886Z,6.88
2022-10-21T10:00:45.593Z,5.30
2022-10-21T10:01:49.910Z,4.85
2022-10-21T10:02:51.673Z,4.75
2022-10-21T10:03:54.920Z,4.97
2022-10-21T10:04:56.832Z,5.05
2022-10-21T10:05:59.846Z,5.00
2022-10-21T10:07:19.371Z,5.72
2022-10-21T10:08:29.410Z,5.33
2022-10-21T10:09:33.896Z,5.57
2022-10-21T10:10:35.408Z,5.38
2022-10-21T10:11:50.206Z,5.60
2022-10-21T10:12:56.885Z,6.15
2022-10-21T10:14:17.761Z,5.35
2022-10-21T10:15:29.316Z,5.13
2022-10-21T10:16:34.113Z,4.40
2022-10-21T10:17:39.644Z,5.35
2022-10-21T10:18:42.110Z,4.90
2022-10-21T10:19:44.723Z,5.20
2022-10-21T10:20:46.239Z,5.50
2022-10-21T10:22:10.736Z,5.17
2022-10-21T10:23:19.921Z,5.35
2022-10-21T10:24:22.845Z,5.22
2022-10-21T10:25:28.442Z,5.80
2022-10-21T10:26:34.165Z,6.00
2022-10-21T10:27:36.503Z,5.85
2022-10-21T10:28:39.234Z,6.03
2022-10-21T10:29:42.517Z,6.28
2022-10-21T10:30:49.452Z,5.97
2022-10-21T10:31:55.406Z,8.55
2022-10-21T10:32:58.243Z,6.93
2022-10-21T10:34:04.546Z,6.10
2022-10-21T10:35:15.279Z,6.80
2022-10-21T10:36:28.654Z,6.53
2022-10-21T10:37:36.166Z,5.35
2022-10-21T10:38:42.078Z,5.70
2022-10-21T10:39:49.210Z,6.07
2022-10-21T10:40:54.207Z,5.30
2022-10-21T10:41:59.852Z,6.18
2022-10-21T10:43:07.092Z,6.43
2022-10-21T10:44:12.451Z,6.38
2022-10-21T10:45:20.258Z,6.05
2022-10-21T10:46:25.606Z,6.78
2022-10-21T10:47:31.597Z,5.20
2022-10-21T10:48:37.631Z,6.18
2022-10-21T10:49:43.720Z,6.28
2022-10-21T10:50:47.220Z,6.13
2022-10-21T10:52:04.224Z,6.45
2022-10-21T10:53:24.664Z,6.30
2022-10-21T10:54:29.303Z,5.82
2022-10-21T10:55:33.909Z,6.90
2022-10-21T10:56:42.195Z,5.97
2022-10-21T10:57:58.986Z,6.15
2022-10-21T10:59:16.951Z,5.82
2022-10-21T11:00:21.079Z,5.40
2022-10-21T11:01:27.888Z,5.67
2022-10-21T11:02:38.977Z,6.10
2022-10-21T11:03:45.815Z,6.10
2022-10-21T11:05:07.915Z,5.20
2022-10-21T11:06:17.371Z,5.05
2022-10-21T11:07:26.644Z,6.15
2022-10-21T11:08:35.197Z,5.60
2022-10-21T11:09:38.363Z,5.40
2022-10-21T11:10:44.600Z,4.95
2022-10-21T11:11:49.425Z,5.70
2022-10-21T11:12:50.965Z,5.53
2022-10-21T11:13:54.444Z,5.85
2022-10-21T11:14:58.378Z,6.45
2022-10-21T11:16:12.389Z,6.03
2022-10-21T11:17:19.994Z,5.82
2022-10-21T11:18:29.108Z,6.00
2022-10-21T11:19:41.189Z,5.18
2022-10-21T11:20:54.079Z,5.18
2022-10-21T11:22:06.259Z,6.03
2022-10-21T11:23:29.035Z,4.63
2022-10-21T11:24:55.239Z,5.72
2022-10-21T11:26:03.981Z,5.70
2022-10-21T11:27:13.486Z,5.45
2022-10-21T11:28:27.433Z,5.43
2022-10-21T11:29:40.787Z,4.53
2022-10-21T11:30:58.256Z,5.03
2022-10-21T11:32:12.649Z,5.90
2022-10-21T11:33:26.357Z,5.40
2022-10-21T11:34:40.317Z,5.30
2022-10-21T11:35:54.267Z,5.40
2022-10-21T11:37:06.656Z,5.37
2022-10-21T11:38:30.482Z,5.22
2022-10-21T11:39:43.030Z,4.75
2022-10-21T11:40:49.865Z,5.13
2022-10-21T11:42:01.138Z,5.15
2022-10-21T11:43:16.390Z,5.07
2022-10-21T11:44:29.630Z,5.63
2022-10-21T11:45:39.607Z,4.90
2022-10-21T11:46:53.453Z,4.80
2022-10-21T11:48:02.459Z,5.47
2022-10-21T11:49:18.783Z,5.10
2022-10-21T11:50:32.381Z,5.57
2022-10-21T11:51:43.261Z,4.80
2022-10-21T11:53:11.546Z,4.47
2022-10-21T11:54:37.136Z,4.78
2022-10-21T11:55:50.456Z,5.25
2022-10-21T11:56:59.375Z,4.60
2022-10-21T11:58:13.340Z,5.10
2022-10-21T11:59:27.136Z,5.28
2022-10-21T12:00:38.052Z,5.20
2022-10-21T12:01:48.599Z,3.90
2022-10-21T12:03:14.409Z,4.27
2022-10-21T12:04:26.132Z,4.83
2022-10-21T12:05:32.605Z,4.97
2022-10-21T12:06:38.748Z,3.57
2022-10-21T12:07:58.446Z,3.90
2022-10-21T12:09:03.702Z,4.13
2022-10-21T12:10:13.467Z,4.20
2022-10-21T12:11:21.842Z,3.97
2022-10-21T12:12:30.055Z,3.93
2022-10-21T12:13:36.841Z,4.07
2022-10-21T12:14:42.341Z,4.90
2022-10-21T12:15:49.375Z,4.20
2022-10-21T12:16:53.715Z,4.10
2022-10-21T12:17:57.661Z,4.00
2022-10-21T12:19:05.478Z,4.20
2022-10-21T12:20:18.071Z,4.47
2022-10-21T12:21:26.882Z,3.43
2022-10-21T12:22:33.047Z,4.37
2022-10-21T12:23:34.799Z,4.73
2022-10-21T12:24:48.388Z,3.30
2022-10-21T12:26:04.724Z,3.40
2022-10-21T12:27:18.371Z,4.32
2022-10-21T12:28:29.119Z,3.50
2022-10-21T12:29:44.447Z,3.80
2022-10-21T12:30:54.847Z,4.10
2022-10-21T12:32:06.180Z,3.30
2022-10-21T12:33:17.050Z,3.40
2022-10-21T12:34:19.773Z,3.43
2022-10-21T12:35:26.996Z,3.80
2022-10-21T12:36:44.805Z,3.73
2022-10-21T12:38:06.972Z,3.80
2022-10-21T12:39:16.632Z,3.30
2022-10-21T12:40:35.830Z,3.23
2022-10-21T12:41:39.298Z,3.50
2022-10-21T12:42:46.595Z,3.77
2022-10-21T12:43:54.673Z,3.17
2022-10-21T12:44:56.281Z,3.80
2022-10-21T12:46:05.329Z,2.90
2022-10-21T12:47:24.842Z,3.60
2022-10-21T12:48:32.545Z,3.53
2022-10-21T12:49:36.336Z,3.93
2022-10-21T12:50:38.212Z,4.60
2022-10-21T12:51:41.084Z,4.33
2022-10-21T12:52:45.876Z,3.03
2022-10-21T12:55:02.084Z,3.37
2022-10-21T12:56:05.326Z,2.40
2022-10-21T12:57:10.938Z,2.90
2022-10-21T12:58:25.448Z,3.00
2022-10-21T12:59:31.761Z,3.00
2022-10-21T13:00:54.859Z,2.90
2022-10-21T13:02:27.083Z,2.40
2022-10-21T13:03:52.008Z,3.73
2022-10-21T13:04:57.286Z,2.70
2022-10-21T13:06:02.724Z,3.37
2022-10-21T13:07:06.377Z,2.80
2022-10-21T13:08:27.105Z,3.80
2022-10-21T13:09:34.870Z,2.60
2022-10-21T13:10:37.360Z,3.47
2022-10-21T13:11:40.870Z,3.57
2022-10-21T13:12:43.486Z,3.20
2022-10-21T13:13:48.396Z,4.00
2022-10-21T13:14:52.500Z,3.73
2022-10-21T13:15:55.430Z,4.27
2022-10-21T13:17:17.218Z,3.90
2022-10-21T13:19:04.868Z,3.00
2022-10-21T13:20:53.060Z,3.70
2022-10-21T13:22:03.293Z,4.77
2022-10-21T13:23:31.679Z,3.50
2022-10-21T13:24:35.093Z,4.20
2022-10-21T13:25:36.887Z,4.20
2022-10-21T13:26:41.629Z,4.30
2022-10-21T13:27:46.160Z,3.57
2022-10-21T13:29:21.823Z,4.33
2022-10-21T13:30:29.123Z,4.27
2022-10-21T13:31:32.128Z,4.10
2022-10-21T13:32:36.111Z,4.40
2022-10-21T13:33:38.748Z,4.77
2022-10-21T13:34:43.547Z,4.40
2022-10-21T13:35:48.699Z,3.57
2022-10-21T13:36:52.774Z,4.80
2022-10-21T13:37:58.819Z,5.10
2022-10-21T13:39:04.961Z,3.40
2022-10-21T13:40:15.411Z,4.33
2022-10-21T13:41:22.522Z,4.00
2022-10-21T13:42:27.469Z,4.10
2022-10-21T13:43:39.179Z,3.97
2022-10-21T13:44:50.207Z,3.97
2022-10-21T13:45:58.312Z,4.10
2022-10-21T13:47:18.688Z,4.23
2022-10-21T13:48:25.178Z,3.40
2022-10-21T13:49:28.764Z,3.50
2022-10-21T13:50:33.909Z,4.77
2022-10-21T13:51:46.541Z,4.30
2022-10-21T13:52:48.083Z,3.80
2022-10-21T13:53:54.675Z,4.43
2022-10-21T13:54:57.012Z,3.60
2022-10-21T13:56:02.848Z,3.70
2022-10-21T13:57:07.403Z,3.60
2022-10-21T13:58:16.333Z,4.20
2022-10-21T13:59:24.693Z,3.53
2022-10-21T14:00:30.205Z,4.43
2022-10-21T14:01:46.299Z,5.10
2022-10-21T14:02:48.672Z,4.80
2022-10-21T14:03:53.107Z,3.80
2022-10-21T14:04:54.799Z,3.50
2022-10-21T14:06:01.246Z,3.30
2022-10-21T14:07:07.799Z,4.20
2022-10-21T14:08:21.101Z,3.30
2022-10-21T14:09:28.596Z,3.17
2022-10-21T14:10:30.931Z,2.93
2022-10-21T14:11:37.593Z,3.30
2022-10-21T14:12:44.836Z,3.37
2022-10-21T14:13:49.102Z,3.50
2022-10-21T14:14:52.756Z,3.10
2022-10-21T14:15:57.269Z,2.80
2022-10-21T14:17:02.685Z,3.10
2022-10-21T14:18:07.947Z,3.00
2022-10-21T14:19:16.350Z,2.77
2022-10-21T14:20:26.147Z,3.53
2022-10-21T14:21:33.079Z,2.93
2022-10-21T14:22:36.681Z,3.20
2022-10-21T14:23:39.823Z,3.53
2022-10-21T14:24:45.134Z,2.70
2022-10-21T14:25:49.586Z,3.17
2022-10-21T14:26:52.587Z,3.30
2022-10-21T14:27:54.407Z,2.70
2022-10-21T14:28:58.662Z,2.57
2022-10-21T14:30:05.790Z,2.63
2022-10-21T14:31:12.380Z,2.80
2022-10-21T14:32:16.381Z,3.57
2022-10-21T14:33:25.168Z,2.80
2022-10-21T14:34:28.648Z,2.97
2022-10-21T14:35:32.221Z,3.07
2022-10-21T14:36:35.944Z,2.70
2022-10-21T14:37:44.889Z,2.83
2022-10-21T14:38:55.335Z,2.70
2022-10-21T14:40:10.909Z,2.93
2022-10-21T14:41:18.948Z,2.80